sensor_id;sensor_type;location;lat;lon;timestamp;temperature;humidity
44851;DHT22;30583;48.714;9.386;2023-04-12T00:00:45;11.90;53.70
44851;DHT22;30583;48.714;9.386;2023-04-12T00:03:10;11.60;55.10
44851;DHT22;30583;48.714;9.386;2023-04-12T00:05:36;11.70;55.60
44851;DHT22;30583;48.714;9.386;2023-04-12T00:08:02;12.10;54.40
44851;DHT22;30583;48.714;9.386;2023-04-12T00:10:29;12.20;54.00
44851;DHT22;30583;48.714;9.386;2023-04-12T00:12:55;11.90;54.70
44851;DHT22;30583;48.714;9.386;2023-04-12T00:15:21;12.10;54.60
44851;DHT22;30583;48.714;9.386;2023-04-12T00:17:46;12.20;54.20
44851;DHT22;30583;48.714;9.386;2023-04-12T00:20:13;11.70;55.10
44851;DHT22;30583;48.714;9.386;2023-04-12T00:22:40;11.70;55.70
44851;DHT22;30583;48.714;9.386;2023-04-12T00:25:07;11.60;55.00
44851;DHT22;30583;48.714;9.386;2023-04-12T00:27:33;11.40;55.90
44851;DHT22;30583;48.714;9.386;2023-04-12T00:29:58;11.30;56.30
44851;DHT22;30583;48.714;9.386;2023-04-12T00:32:24;11.70;56.40
44851;DHT22;30583;48.714;9.386;2023-04-12T00:34:50;12.20;55.40
44851;DHT22;30583;48.714;9.386;2023-04-12T00:37:16;12.00;55.90
44851;DHT22;30583;48.714;9.386;2023-04-12T00:39:41;11.80;56.60
44851;DHT22;30583;48.714;9.386;2023-04-12T00:42:07;11.70;57.30
44851;DHT22;30583;48.714;9.386;2023-04-12T00:44:33;11.70;57.30
44851;DHT22;30583;48.714;9.386;2023-04-12T00:46:58;11.40;58.00
44851;DHT22;30583;48.714;9.386;2023-04-12T00:49:26;11.20;59.10
44851;DHT22;30583;48.714;9.386;2023-04-12T00:51:59;11.70;58.70
44851;DHT22;30583;48.714;9.386;2023-04-12T00:54:28;11.80;59.10
44851;DHT22;30583;48.714;9.386;2023-04-12T00:56:54;11.60;59.40
44851;DHT22;30583;48.714;9.386;2023-04-12T00:59:22;11.30;60.20
44851;DHT22;30583;48.714;9.386;2023-04-12T01:01:47;11.70;59.70
44851;DHT22;30583;48.714;9.386;2023-04-12T01:04:14;11.60;60.00
44851;DHT22;30583;48.714;9.386;2023-04-12T01:06:59;11.60;60.20
44851;DHT22;30583;48.714;9.386;2023-04-12T01:09:43;11.90;60.40
44851;DHT22;30583;48.714;9.386;2023-04-12T01:12:24;11.80;61.00
44851;DHT22;30583;48.714;9.386;2023-04-12T01:17:27;11.40;64.30
44851;DHT22;30583;48.714;9.386;2023-04-12T01:20:04;11.60;64.40
44851;DHT22;30583;48.714;9.386;2023-04-12T01:28:15;11.50;64.60
44851;DHT22;30583;48.714;9.386;2023-04-12T01:30:45;11.30;65.30
44851;DHT22;30583;48.714;9.386;2023-04-12T01:33:13;11.20;65.70
44851;DHT22;30583;48.714;9.386;2023-04-12T01:35:39;11.30;65.90
44851;DHT22;30583;48.714;9.386;2023-04-12T01:38:06;11.60;65.60
44851;DHT22;30583;48.714;9.386;2023-04-12T01:40:32;11.40;65.90
44851;DHT22;30583;48.714;9.386;2023-04-12T01:43:11;11.40;66.80
44851;DHT22;30583;48.714;9.386;2023-04-12T01:45:37;11.20;68.20
44851;DHT22;30583;48.714;9.386;2023-04-12T01:48:05;11.20;68.50
44851;DHT22;30583;48.714;9.386;2023-04-12T01:53:12;11.40;68.40
44851;DHT22;30583;48.714;9.386;2023-04-12T01:55:40;11.60;68.10
44851;DHT22;30583;48.714;9.386;2023-04-12T01:58:11;11.50;68.50
44851;DHT22;30583;48.714;9.386;2023-04-12T02:00:37;11.20;70.10
44851;DHT22;30583;48.714;9.386;2023-04-12T02:03:04;11.20;70.10
44851;DHT22;30583;48.714;9.386;2023-04-12T02:05:31;11.30;69.50
44851;DHT22;30583;48.714;9.386;2023-04-12T02:07:58;11.30;69.70
44851;DHT22;30583;48.714;9.386;2023-04-12T02:10:28;11.30;70.10
44851;DHT22;30583;48.714;9.386;2023-04-12T02:12:54;11.20;69.90
44851;DHT22;30583;48.714;9.386;2023-04-12T02:15:20;11.20;70.40
44851;DHT22;30583;48.714;9.386;2023-04-12T02:17:46;11.20;70.70
44851;DHT22;30583;48.714;9.386;2023-04-12T02:20:11;11.00;71.40
44851;DHT22;30583;48.714;9.386;2023-04-12T02:22:37;11.10;71.50
44851;DHT22;30583;48.714;9.386;2023-04-12T02:25:03;10.90;71.80
44851;DHT22;30583;48.714;9.386;2023-04-12T02:27:31;10.40;73.20
44851;DHT22;30583;48.714;9.386;2023-04-12T02:29:56;10.90;72.70
44851;DHT22;30583;48.714;9.386;2023-04-12T02:32:23;11.00;71.80
44851;DHT22;30583;48.714;9.386;2023-04-12T02:34:49;10.80;72.70
44851;DHT22;30583;48.714;9.386;2023-04-12T02:37:17;11.20;72.00
44851;DHT22;30583;48.714;9.386;2023-04-12T02:39:46;11.20;71.90
44851;DHT22;30583;48.714;9.386;2023-04-12T02:42:12;10.90;71.90
44851;DHT22;30583;48.714;9.386;2023-04-12T02:44:38;10.80;72.40
44851;DHT22;30583;48.714;9.386;2023-04-12T02:47:03;10.80;72.60
44851;DHT22;30583;48.714;9.386;2023-04-12T02:49:29;10.50;73.10
44851;DHT22;30583;48.714;9.386;2023-04-12T02:51:55;10.40;74.10
44851;DHT22;30583;48.714;9.386;2023-04-12T02:54:20;10.50;74.00
44851;DHT22;30583;48.714;9.386;2023-04-12T02:56:46;10.30;74.70
44851;DHT22;30583;48.714;9.386;2023-04-12T02:59:11;10.80;73.50
44851;DHT22;30583;48.714;9.386;2023-04-12T03:01:37;10.60;73.50
44851;DHT22;30583;48.714;9.386;2023-04-12T03:04:04;11.00;72.90
44851;DHT22;30583;48.714;9.386;2023-04-12T03:06:30;11.10;72.00
44851;DHT22;30583;48.714;9.386;2023-04-12T03:08:56;11.00;71.90
44851;DHT22;30583;48.714;9.386;2023-04-12T03:11:22;11.00;72.40
44851;DHT22;30583;48.714;9.386;2023-04-12T03:13:47;10.60;73.50
44851;DHT22;30583;48.714;9.386;2023-04-12T03:16:23;10.70;73.90
44851;DHT22;30583;48.714;9.386;2023-04-12T03:18:49;10.90;72.90
44851;DHT22;30583;48.714;9.386;2023-04-12T03:21:16;10.70;73.50
44851;DHT22;30583;48.714;9.386;2023-04-12T03:23:42;10.90;73.20
44851;DHT22;30583;48.714;9.386;2023-04-12T03:26:07;10.70;73.40
44851;DHT22;30583;48.714;9.386;2023-04-12T03:28:34;10.70;74.10
44851;DHT22;30583;48.714;9.386;2023-04-12T03:31:00;11.00;73.10
44851;DHT22;30583;48.714;9.386;2023-04-12T03:33:26;10.70;73.80
44851;DHT22;30583;48.714;9.386;2023-04-12T03:35:52;10.50;75.60
44851;DHT22;30583;48.714;9.386;2023-04-12T03:38:17;10.60;74.60
44851;DHT22;30583;48.714;9.386;2023-04-12T03:40:43;10.50;75.20
44851;DHT22;30583;48.714;9.386;2023-04-12T03:43:08;10.40;75.10
44851;DHT22;30583;48.714;9.386;2023-04-12T03:45:34;10.60;75.30
44851;DHT22;30583;48.714;9.386;2023-04-12T03:47:59;10.70;74.60
44851;DHT22;30583;48.714;9.386;2023-04-12T03:50:25;11.00;73.70
44851;DHT22;30583;48.714;9.386;2023-04-12T03:52:53;10.60;75.10
44851;DHT22;30583;48.714;9.386;2023-04-12T03:55:19;10.90;74.20
44851;DHT22;30583;48.714;9.386;2023-04-12T03:57:44;10.10;76.00
44851;DHT22;30583;48.714;9.386;2023-04-12T04:00:11;10.10;76.80
44851;DHT22;30583;48.714;9.386;2023-04-12T04:02:37;10.20;76.90
44851;DHT22;30583;48.714;9.386;2023-04-12T04:05:03;10.40;76.10
44851;DHT22;30583;48.714;9.386;2023-04-12T04:07:29;10.20;77.10
44851;DHT22;30583;48.714;9.386;2023-04-12T04:09:56;10.30;77.10
44851;DHT22;30583;48.714;9.386;2023-04-12T04:12:22;10.60;76.20
44851;DHT22;30583;48.714;9.386;2023-04-12T04:14:47;10.40;76.20
44851;DHT22;30583;48.714;9.386;2023-04-12T04:17:13;10.30;76.80
44851;DHT22;30583;48.714;9.386;2023-04-12T04:19:38;10.80;75.40
44851;DHT22;30583;48.714;9.386;2023-04-12T04:22:04;11.00;74.70
44851;DHT22;30583;48.714;9.386;2023-04-12T04:24:29;11.00;74.70
44851;DHT22;30583;48.714;9.386;2023-04-12T04:26:55;11.00;74.20
44851;DHT22;30583;48.714;9.386;2023-04-12T04:29:21;10.80;74.90
44851;DHT22;30583;48.714;9.386;2023-04-12T04:31:46;10.60;75.50
44851;DHT22;30583;48.714;9.386;2023-04-12T04:34:12;10.50;76.40
44851;DHT22;30583;48.714;9.386;2023-04-12T04:36:40;11.30;74.80
44851;DHT22;30583;48.714;9.386;2023-04-12T04:39:06;11.90;72.70
44851;DHT22;30583;48.714;9.386;2023-04-12T04:41:31;11.60;72.50
44851;DHT22;30583;48.714;9.386;2023-04-12T04:44:04;11.70;72.70
44851;DHT22;30583;48.714;9.386;2023-04-12T04:46:34;10.80;74.20
44851;DHT22;30583;48.714;9.386;2023-04-12T04:49:01;10.20;77.10
44851;DHT22;30583;48.714;9.386;2023-04-12T04:51:26;10.50;76.70
44851;DHT22;30583;48.714;9.386;2023-04-12T04:53:52;10.20;77.60
44851;DHT22;30583;48.714;9.386;2023-04-12T04:56:18;10.60;77.20
44851;DHT22;30583;48.714;9.386;2023-04-12T04:58:43;10.50;75.70
44851;DHT22;30583;48.714;9.386;2023-04-12T05:01:09;10.20;77.90
44851;DHT22;30583;48.714;9.386;2023-04-12T05:03:37;16.30;61.70
44851;DHT22;30583;48.714;9.386;2023-04-12T05:06:05;17.40;56.00
44851;DHT22;30583;48.714;9.386;2023-04-12T05:08:31;13.50;63.50
44851;DHT22;30583;48.714;9.386;2023-04-12T05:10:56;11.60;70.80
44851;DHT22;30583;48.714;9.386;2023-04-12T05:13:22;10.90;73.60
44851;DHT22;30583;48.714;9.386;2023-04-12T05:15:48;10.60;75.60
44851;DHT22;30583;48.714;9.386;2023-04-12T05:18:14;10.40;76.50
44851;DHT22;30583;48.714;9.386;2023-04-12T05:20:40;10.20;77.20
44851;DHT22;30583;48.714;9.386;2023-04-12T05:23:06;10.20;78.20
44851;DHT22;30583;48.714;9.386;2023-04-12T05:25:32;10.30;77.00
44851;DHT22;30583;48.714;9.386;2023-04-12T05:27:57;9.70;79.10
44851;DHT22;30583;48.714;9.386;2023-04-12T05:30:23;9.90;79.50
44851;DHT22;30583;48.714;9.386;2023-04-12T05:32:49;10.20;78.60
44851;DHT22;30583;48.714;9.386;2023-04-12T05:35:14;10.10;78.70
44851;DHT22;30583;48.714;9.386;2023-04-12T05:37:40;10.10;78.70
44851;DHT22;30583;48.714;9.386;2023-04-12T05:40:06;10.20;78.40
44851;DHT22;30583;48.714;9.386;2023-04-12T05:42:34;10.00;78.80
44851;DHT22;30583;48.714;9.386;2023-04-12T05:45:01;10.00;79.30
44851;DHT22;30583;48.714;9.386;2023-04-12T05:47:28;10.10;79.00
44851;DHT22;30583;48.714;9.386;2023-04-12T05:49:53;10.00;78.90
44851;DHT22;30583;48.714;9.386;2023-04-12T05:52:19;10.00;79.40
44851;DHT22;30583;48.714;9.386;2023-04-12T05:54:45;10.00;79.70
44851;DHT22;30583;48.714;9.386;2023-04-12T05:57:11;10.20;79.60
44851;DHT22;30583;48.714;9.386;2023-04-12T05:59:37;10.00;79.50
44851;DHT22;30583;48.714;9.386;2023-04-12T06:02:03;9.80;79.90
44851;DHT22;30583;48.714;9.386;2023-04-12T06:04:28;10.00;80.40
44851;DHT22;30583;48.714;9.386;2023-04-12T06:06:54;9.50;81.20
44851;DHT22;30583;48.714;9.386;2023-04-12T06:09:21;9.30;82.20
44851;DHT22;30583;48.714;9.386;2023-04-12T06:11:46;9.40;82.50
44851;DHT22;30583;48.714;9.386;2023-04-12T06:14:12;9.70;82.00
44851;DHT22;30583;48.714;9.386;2023-04-12T06:16:37;9.70;81.60
44851;DHT22;30583;48.714;9.386;2023-04-12T06:19:03;9.60;82.30
44851;DHT22;30583;48.714;9.386;2023-04-12T06:21:29;9.50;82.60
44851;DHT22;30583;48.714;9.386;2023-04-12T06:23:55;9.20;83.30
44851;DHT22;30583;48.714;9.386;2023-04-12T06:26:21;9.20;83.40
44851;DHT22;30583;48.714;9.386;2023-04-12T06:28:46;9.30;83.60
44851;DHT22;30583;48.714;9.386;2023-04-12T06:31:12;9.50;83.10
44851;DHT22;30583;48.714;9.386;2023-04-12T06:33:37;9.50;82.80
44851;DHT22;30583;48.714;9.386;2023-04-12T06:36:03;9.30;83.20
44851;DHT22;30583;48.714;9.386;2023-04-12T06:38:29;9.30;83.40
44851;DHT22;30583;48.714;9.386;2023-04-12T06:40:54;9.50;83.20
44851;DHT22;30583;48.714;9.386;2023-04-12T06:43:20;9.30;83.40
44851;DHT22;30583;48.714;9.386;2023-04-12T06:45:47;9.30;83.30
44851;DHT22;30583;48.714;9.386;2023-04-12T06:48:14;9.40;83.60
44851;DHT22;30583;48.714;9.386;2023-04-12T06:50:40;9.40;83.60
44851;DHT22;30583;48.714;9.386;2023-04-12T06:53:05;9.40;83.50
44851;DHT22;30583;48.714;9.386;2023-04-12T06:55:31;9.60;83.00
44851;DHT22;30583;48.714;9.386;2023-04-12T06:57:57;9.60;83.00
44851;DHT22;30583;48.714;9.386;2023-04-12T07:00:23;9.30;83.40
44851;DHT22;30583;48.714;9.386;2023-04-12T07:02:48;9.50;83.60
44851;DHT22;30583;48.714;9.386;2023-04-12T07:05:14;9.80;83.00
44851;DHT22;30583;48.714;9.386;2023-04-12T07:07:40;9.70;82.80
44851;DHT22;30583;48.714;9.386;2023-04-12T07:10:06;9.70;83.00
44851;DHT22;30583;48.714;9.386;2023-04-12T07:12:32;9.90;82.70
44851;DHT22;30583;48.714;9.386;2023-04-12T07:14:58;9.70;83.20
44851;DHT22;30583;48.714;9.386;2023-04-12T07:17:23;9.70;83.70
44851;DHT22;30583;48.714;9.386;2023-04-12T07:19:52;9.80;83.10
44851;DHT22;30583;48.714;9.386;2023-04-12T07:22:18;10.00;83.00
44851;DHT22;30583;48.714;9.386;2023-04-12T07:24:43;10.80;80.30
44851;DHT22;30583;48.714;9.386;2023-04-12T07:27:09;10.70;80.90
44851;DHT22;30583;48.714;9.386;2023-04-12T07:29:35;11.10;79.50
44851;DHT22;30583;48.714;9.386;2023-04-12T07:32:02;10.70;79.70
44851;DHT22;30583;48.714;9.386;2023-04-12T07:34:27;11.00;79.30
44851;DHT22;30583;48.714;9.386;2023-04-12T07:36:53;10.70;80.80
44851;DHT22;30583;48.714;9.386;2023-04-12T07:39:18;10.60;80.40
44851;DHT22;30583;48.714;9.386;2023-04-12T07:41:44;10.50;81.80
44851;DHT22;30583;48.714;9.386;2023-04-12T07:44:11;10.70;80.40
44851;DHT22;30583;48.714;9.386;2023-04-12T07:46:38;10.60;81.50
44851;DHT22;30583;48.714;9.386;2023-04-12T07:49:03;10.80;80.00
44851;DHT22;30583;48.714;9.386;2023-04-12T07:51:29;11.30;79.30
44851;DHT22;30583;48.714;9.386;2023-04-12T07:53:55;11.70;77.60
44851;DHT22;30583;48.714;9.386;2023-04-12T07:56:21;11.50;77.60
44851;DHT22;30583;48.714;9.386;2023-04-12T07:58:46;11.20;78.90
44851;DHT22;30583;48.714;9.386;2023-04-12T08:01:14;10.80;79.30
44851;DHT22;30583;48.714;9.386;2023-04-12T08:03:40;11.30;79.10
44851;DHT22;30583;48.714;9.386;2023-04-12T08:06:06;11.10;78.50
44851;DHT22;30583;48.714;9.386;2023-04-12T08:08:32;10.90;80.20
44851;DHT22;30583;48.714;9.386;2023-04-12T08:10:58;10.70;80.70
44851;DHT22;30583;48.714;9.386;2023-04-12T08:13:25;10.70;79.90
44851;DHT22;30583;48.714;9.386;2023-04-12T08:15:50;10.70;80.60
44851;DHT22;30583;48.714;9.386;2023-04-12T08:18:16;10.50;81.60
44851;DHT22;30583;48.714;9.386;2023-04-12T08:20:42;10.40;82.00
44851;DHT22;30583;48.714;9.386;2023-04-12T08:23:10;10.40;82.10
44851;DHT22;30583;48.714;9.386;2023-04-12T08:25:37;10.70;82.30
44851;DHT22;30583;48.714;9.386;2023-04-12T08:28:03;11.30;79.70
44851;DHT22;30583;48.714;9.386;2023-04-12T08:30:29;10.90;81.00
44851;DHT22;30583;48.714;9.386;2023-04-12T08:32:55;10.90;81.70
44851;DHT22;30583;48.714;9.386;2023-04-12T08:35:21;11.20;80.60
44851;DHT22;30583;48.714;9.386;2023-04-12T08:37:47;11.00;80.10
44851;DHT22;30583;48.714;9.386;2023-04-12T08:40:13;11.10;80.20
44851;DHT22;30583;48.714;9.386;2023-04-12T08:42:39;10.90;80.80
44851;DHT22;30583;48.714;9.386;2023-04-12T08:45:10;10.90;80.60
44851;DHT22;30583;48.714;9.386;2023-04-12T08:47:39;11.00;80.20
44851;DHT22;30583;48.714;9.386;2023-04-12T08:50:06;10.90;80.20
44851;DHT22;30583;48.714;9.386;2023-04-12T08:52:34;11.00;79.70
44851;DHT22;30583;48.714;9.386;2023-04-12T08:55:04;11.10;79.50
44851;DHT22;30583;48.714;9.386;2023-04-12T08:57:30;11.10;79.80
44851;DHT22;30583;48.714;9.386;2023-04-12T08:59:59;11.10;79.80
44851;DHT22;30583;48.714;9.386;2023-04-12T09:02:28;11.00;80.10
44851;DHT22;30583;48.714;9.386;2023-04-12T09:04:54;11.00;80.10
44851;DHT22;30583;48.714;9.386;2023-04-12T09:07:20;11.00;80.50
44851;DHT22;30583;48.714;9.386;2023-04-12T09:09:52;11.20;80.10
44851;DHT22;30583;48.714;9.386;2023-04-12T09:12:18;11.70;78.80
44851;DHT22;30583;48.714;9.386;2023-04-12T09:15:10;11.60;78.70
44851;DHT22;30583;48.714;9.386;2023-04-12T09:17:40;11.40;79.90
44851;DHT22;30583;48.714;9.386;2023-04-12T09:22:41;11.70;79.10
44851;DHT22;30583;48.714;9.386;2023-04-12T09:25:14;11.60;79.20
44851;DHT22;30583;48.714;9.386;2023-04-12T09:27:50;11.40;80.70
44851;DHT22;30583;48.714;9.386;2023-04-12T09:30:18;11.40;80.90
44851;DHT22;30583;48.714;9.386;2023-04-12T09:32:44;11.50;80.50
44851;DHT22;30583;48.714;9.386;2023-04-12T09:35:10;11.40;80.50
44851;DHT22;30583;48.714;9.386;2023-04-12T09:37:35;11.40;80.90
44851;DHT22;30583;48.714;9.386;2023-04-12T09:40:04;11.70;79.90
44851;DHT22;30583;48.714;9.386;2023-04-12T09:42:32;11.90;79.90
44851;DHT22;30583;48.714;9.386;2023-04-12T09:44:59;11.80;80.70
44851;DHT22;30583;48.714;9.386;2023-04-12T09:47:38;11.80;80.90
44851;DHT22;30583;48.714;9.386;2023-04-12T09:50:05;11.90;80.70
44851;DHT22;30583;48.714;9.386;2023-04-12T09:52:36;11.90;80.80
44851;DHT22;30583;48.714;9.386;2023-04-12T09:55:08;12.10;80.80
44851;DHT22;30583;48.714;9.386;2023-04-12T09:57:40;12.10;80.00
44851;DHT22;30583;48.714;9.386;2023-04-12T10:00:07;12.30;79.70
44851;DHT22;30583;48.714;9.386;2023-04-12T10:02:37;12.40;79.20
44851;DHT22;30583;48.714;9.386;2023-04-12T10:05:05;12.40;79.10
44851;DHT22;30583;48.714;9.386;2023-04-12T10:07:30;12.40;78.80
44851;DHT22;30583;48.714;9.386;2023-04-12T10:09:58;12.60;78.20
44851;DHT22;30583;48.714;9.386;2023-04-12T10:12:25;12.50;78.20
44851;DHT22;30583;48.714;9.386;2023-04-12T10:14:52;12.40;78.20
44851;DHT22;30583;48.714;9.386;2023-04-12T10:17:19;12.70;77.10
44851;DHT22;30583;48.714;9.386;2023-04-12T10:19:45;13.00;77.20
44851;DHT22;30583;48.714;9.386;2023-04-12T10:22:12;13.10;76.60
44851;DHT22;30583;48.714;9.386;2023-04-12T10:24:37;13.20;77.00
44851;DHT22;30583;48.714;9.386;2023-04-12T10:27:04;13.30;77.00
44851;DHT22;30583;48.714;9.386;2023-04-12T10:29:32;13.50;76.50
44851;DHT22;30583;48.714;9.386;2023-04-12T10:32:20;13.50;76.40
44851;DHT22;30583;48.714;9.386;2023-04-12T10:34:54;13.60;76.10
44851;DHT22;30583;48.714;9.386;2023-04-12T10:37:21;13.60;74.40
44851;DHT22;30583;48.714;9.386;2023-04-12T10:39:53;13.60;73.40
44851;DHT22;30583;48.714;9.386;2023-04-12T10:42:24;13.50;71.30
44851;DHT22;30583;48.714;9.386;2023-04-12T10:44:51;13.40;72.30
44851;DHT22;30583;48.714;9.386;2023-04-12T10:55:40;13.40;70.30
44851;DHT22;30583;48.714;9.386;2023-04-12T10:58:07;13.50;69.20
44851;DHT22;30583;48.714;9.386;2023-04-12T11:03:21;13.50;68.70
44851;DHT22;30583;48.714;9.386;2023-04-12T11:06:01;13.70;68.80
44851;DHT22;30583;48.714;9.386;2023-04-12T11:08:31;13.60;68.30
44851;DHT22;30583;48.714;9.386;2023-04-12T11:11:04;13.70;68.50
44851;DHT22;30583;48.714;9.386;2023-04-12T11:13:37;13.70;67.90
44851;DHT22;30583;48.714;9.386;2023-04-12T11:16:04;13.80;67.90
44851;DHT22;30583;48.714;9.386;2023-04-12T11:18:32;13.80;67.70
44851;DHT22;30583;48.714;9.386;2023-04-12T11:21:01;13.80;66.90
44851;DHT22;30583;48.714;9.386;2023-04-12T11:23:27;13.80;67.20
44851;DHT22;30583;48.714;9.386;2023-04-12T11:25:53;13.80;66.10
44851;DHT22;30583;48.714;9.386;2023-04-12T11:28:19;13.90;66.30
44851;DHT22;30583;48.714;9.386;2023-04-12T11:30:52;13.90;66.30
44851;DHT22;30583;48.714;9.386;2023-04-12T11:33:50;13.80;66.30
44851;DHT22;30583;48.714;9.386;2023-04-12T11:36:16;13.90;67.50
44851;DHT22;30583;48.714;9.386;2023-04-12T11:38:42;14.00;67.10
44851;DHT22;30583;48.714;9.386;2023-04-12T11:41:10;13.90;66.10
44851;DHT22;30583;48.714;9.386;2023-04-12T11:43:36;13.90;65.70
44851;DHT22;30583;48.714;9.386;2023-04-12T11:46:03;13.90;66.40
44851;DHT22;30583;48.714;9.386;2023-04-12T11:48:29;14.00;65.70
44851;DHT22;30583;48.714;9.386;2023-04-12T11:50:55;13.90;65.60
44851;DHT22;30583;48.714;9.386;2023-04-12T11:53:28;13.90;65.90
44851;DHT22;30583;48.714;9.386;2023-04-12T11:55:56;14.00;66.30
44851;DHT22;30583;48.714;9.386;2023-04-12T11:58:26;14.20;65.90
44851;DHT22;30583;48.714;9.386;2023-04-12T12:00:52;14.30;65.20
44851;DHT22;30583;48.714;9.386;2023-04-12T12:03:18;14.30;65.10
44851;DHT22;30583;48.714;9.386;2023-04-12T12:05:45;14.20;64.90
44851;DHT22;30583;48.714;9.386;2023-04-12T12:08:11;14.30;65.40
44851;DHT22;30583;48.714;9.386;2023-04-12T12:10:39;14.40;65.40
44851;DHT22;30583;48.714;9.386;2023-04-12T12:13:11;14.30;64.80
44851;DHT22;30583;48.714;9.386;2023-04-12T12:15:37;14.40;64.90
44851;DHT22;30583;48.714;9.386;2023-04-12T12:18:06;14.20;65.30
44851;DHT22;30583;48.714;9.386;2023-04-12T12:20:37;14.30;65.20
44851;DHT22;30583;48.714;9.386;2023-04-12T12:23:03;14.20;64.50
44851;DHT22;30583;48.714;9.386;2023-04-12T12:25:29;14.20;64.50
44851;DHT22;30583;48.714;9.386;2023-04-12T12:27:57;14.20;65.00
44851;DHT22;30583;48.714;9.386;2023-04-12T12:30:23;14.20;64.70
44851;DHT22;30583;48.714;9.386;2023-04-12T12:32:50;14.30;65.00
44851;DHT22;30583;48.714;9.386;2023-04-12T12:35:18;14.30;65.20
44851;DHT22;30583;48.714;9.386;2023-04-12T12:37:52;14.40;65.90
44851;DHT22;30583;48.714;9.386;2023-04-12T12:40:28;14.40;64.70
44851;DHT22;30583;48.714;9.386;2023-04-12T12:42:55;14.40;64.30
44851;DHT22;30583;48.714;9.386;2023-04-12T12:45:26;14.50;64.40
44851;DHT22;30583;48.714;9.386;2023-04-12T12:47:56;14.50;64.50
44851;DHT22;30583;48.714;9.386;2023-04-12T12:50:27;14.60;64.60
44851;DHT22;30583;48.714;9.386;2023-04-12T12:52:54;14.60;64.10
44851;DHT22;30583;48.714;9.386;2023-04-12T12:55:21;14.70;64.50
44851;DHT22;30583;48.714;9.386;2023-04-12T12:57:48;14.80;64.10
44851;DHT22;30583;48.714;9.386;2023-04-12T13:00:15;14.70;63.70
44851;DHT22;30583;48.714;9.386;2023-04-12T13:02:41;14.70;63.80
44851;DHT22;30583;48.714;9.386;2023-04-12T13:05:07;14.70;64.00
44851;DHT22;30583;48.714;9.386;2023-04-12T13:07:34;14.80;64.10
44851;DHT22;30583;48.714;9.386;2023-04-12T13:09:59;14.80;63.90
44851;DHT22;30583;48.714;9.386;2023-04-12T13:12:25;14.90;64.00
44851;DHT22;30583;48.714;9.386;2023-04-12T13:14:51;15.00;64.00
44851;DHT22;30583;48.714;9.386;2023-04-12T13:17:18;15.10;63.40
44851;DHT22;30583;48.714;9.386;2023-04-12T13:19:47;15.00;61.90
44851;DHT22;30583;48.714;9.386;2023-04-12T13:22:14;15.00;62.20
44851;DHT22;30583;48.714;9.386;2023-04-12T13:24:41;15.00;62.00
44851;DHT22;30583;48.714;9.386;2023-04-12T13:27:06;14.90;61.50
44851;DHT22;30583;48.714;9.386;2023-04-12T13:29:32;15.00;62.10
44851;DHT22;30583;48.714;9.386;2023-04-12T13:31:58;15.00;62.00
44851;DHT22;30583;48.714;9.386;2023-04-12T13:34:24;15.10;61.40
44851;DHT22;30583;48.714;9.386;2023-04-12T13:36:50;15.60;61.20
44851;DHT22;30583;48.714;9.386;2023-04-12T13:39:16;15.20;60.60
44851;DHT22;30583;48.714;9.386;2023-04-12T13:41:42;15.20;61.00
44851;DHT22;30583;48.714;9.386;2023-04-12T13:44:07;15.30;61.40
44851;DHT22;30583;48.714;9.386;2023-04-12T13:46:33;15.20;61.50
44851;DHT22;30583;48.714;9.386;2023-04-12T13:48:58;15.30;61.80
44851;DHT22;30583;48.714;9.386;2023-04-12T13:51:24;15.20;62.30
44851;DHT22;30583;48.714;9.386;2023-04-12T13:53:53;15.30;61.60
44851;DHT22;30583;48.714;9.386;2023-04-12T13:56:19;15.30;60.70
44851;DHT22;30583;48.714;9.386;2023-04-12T13:58:45;15.40;61.20
44851;DHT22;30583;48.714;9.386;2023-04-12T14:01:10;15.40;61.10
44851;DHT22;30583;48.714;9.386;2023-04-12T14:03:38;15.40;61.70
44851;DHT22;30583;48.714;9.386;2023-04-12T14:06:04;15.40;61.10
44851;DHT22;30583;48.714;9.386;2023-04-12T14:08:30;15.40;61.00
44851;DHT22;30583;48.714;9.386;2023-04-12T14:10:56;15.40;61.10
44851;DHT22;30583;48.714;9.386;2023-04-12T14:13:22;15.50;61.50
44851;DHT22;30583;48.714;9.386;2023-04-12T14:15:51;15.40;61.00
44851;DHT22;30583;48.714;9.386;2023-04-12T14:18:18;15.50;60.90
44851;DHT22;30583;48.714;9.386;2023-04-12T14:20:44;15.30;61.20
44851;DHT22;30583;48.714;9.386;2023-04-12T14:23:22;15.30;62.00
44851;DHT22;30583;48.714;9.386;2023-04-12T14:25:49;15.20;61.60
44851;DHT22;30583;48.714;9.386;2023-04-12T14:28:16;15.30;61.80
44851;DHT22;30583;48.714;9.386;2023-04-12T14:30:42;15.30;60.80
44851;DHT22;30583;48.714;9.386;2023-04-12T14:33:08;15.30;60.10
44851;DHT22;30583;48.714;9.386;2023-04-12T14:35:34;15.30;60.10
44851;DHT22;30583;48.714;9.386;2023-04-12T14:38:00;15.30;60.30
44851;DHT22;30583;48.714;9.386;2023-04-12T14:40:26;15.30;59.40
44851;DHT22;30583;48.714;9.386;2023-04-12T14:42:52;15.30;59.40
44851;DHT22;30583;48.714;9.386;2023-04-12T14:45:17;15.40;59.80
44851;DHT22;30583;48.714;9.386;2023-04-12T14:47:45;15.40;59.50
44851;DHT22;30583;48.714;9.386;2023-04-12T14:50:10;15.40;59.50
44851;DHT22;30583;48.714;9.386;2023-04-12T14:52:36;15.50;57.90
44851;DHT22;30583;48.714;9.386;2023-04-12T14:55:02;15.60;58.00
44851;DHT22;30583;48.714;9.386;2023-04-12T14:57:28;15.60;58.00
44851;DHT22;30583;48.714;9.386;2023-04-12T14:59:54;15.60;58.10
44851;DHT22;30583;48.714;9.386;2023-04-12T15:02:21;15.60;58.00
44851;DHT22;30583;48.714;9.386;2023-04-12T15:04:47;15.70;58.00
44851;DHT22;30583;48.714;9.386;2023-04-12T15:07:13;15.80;58.10
44851;DHT22;30583;48.714;9.386;2023-04-12T15:09:39;15.90;58.40
44851;DHT22;30583;48.714;9.386;2023-04-12T15:12:04;15.90;57.80
44851;DHT22;30583;48.714;9.386;2023-04-12T15:14:30;15.90;58.30
44851;DHT22;30583;48.714;9.386;2023-04-12T15:16:56;15.90;58.20
44851;DHT22;30583;48.714;9.386;2023-04-12T15:19:22;15.80;58.10
44851;DHT22;30583;48.714;9.386;2023-04-12T15:21:49;15.80;58.30
44851;DHT22;30583;48.714;9.386;2023-04-12T15:24:19;15.70;58.30
44851;DHT22;30583;48.714;9.386;2023-04-12T15:26:46;15.70;57.60
44851;DHT22;30583;48.714;9.386;2023-04-12T15:29:15;15.70;57.70
44851;DHT22;30583;48.714;9.386;2023-04-12T15:31:41;15.70;56.50
44851;DHT22;30583;48.714;9.386;2023-04-12T15:34:07;15.60;56.40
44851;DHT22;30583;48.714;9.386;2023-04-12T15:36:34;15.50;56.90
44851;DHT22;30583;48.714;9.386;2023-04-12T15:39:05;15.50;57.10
44851;DHT22;30583;48.714;9.386;2023-04-12T15:41:38;15.40;57.30
44851;DHT22;30583;48.714;9.386;2023-04-12T15:44:05;14.50;61.20
44851;DHT22;30583;48.714;9.386;2023-04-12T15:46:31;13.30;68.80
44851;DHT22;30583;48.714;9.386;2023-04-12T15:48:57;12.80;71.40
44851;DHT22;30583;48.714;9.386;2023-04-12T15:51:23;12.50;72.00
44851;DHT22;30583;48.714;9.386;2023-04-12T15:53:48;12.80;72.90
44851;DHT22;30583;48.714;9.386;2023-04-12T15:56:14;12.80;71.90